createdAt,value
2019-05-22T00:02:01.229Z,23.70
2019-05-22T00:04:39.286Z,21.60
2019-05-22T00:07:11.671Z,21.50
2019-05-22T00:09:42.087Z,23.83
2019-05-22T00:12:20.553Z,23.10
2019-05-22T00:14:52.545Z,23.33
2019-05-22T00:17:30.235Z,22.67
2019-05-22T00:20:03.309Z,22.70
2019-05-22T00:22:35.722Z,23.30
2019-05-22T00:25:11.719Z,23.50
2019-05-22T00:27:41.153Z,23.63
2019-05-22T00:30:14.619Z,22.67
2019-05-22T00:32:44.164Z,22.17
2019-05-22T00:35:14.476Z,23.73
2019-05-22T00:37:43.641Z,23.33
2019-05-22T00:40:15.298Z,21.93
2019-05-22T00:43:02.555Z,23.70
2019-05-22T00:45:19.390Z,23.63
2019-05-22T00:47:51.040Z,24.77
2019-05-22T00:50:24.736Z,24.20
2019-05-22T00:53:00.938Z,24.43
2019-05-22T00:55:58.395Z,23.60
2019-05-22T00:58:31.643Z,24.20
2019-05-22T01:01:12.401Z,23.50
2019-05-22T01:03:43.318Z,22.43
2019-05-22T01:06:25.511Z,25.10
2019-05-22T01:08:56.324Z,24.00
2019-05-22T01:11:31.403Z,23.13
2019-05-22T01:14:05.494Z,23.83
2019-05-22T01:16:34.517Z,22.80
2019-05-22T01:19:05.665Z,24.20
2019-05-22T01:21:36.816Z,23.30
2019-05-22T01:24:07.798Z,25.10
2019-05-22T01:26:38.561Z,24.57
2019-05-22T01:29:09.714Z,24.67
2019-05-22T01:31:43.104Z,25.07
2019-05-22T01:34:13.006Z,25.57
2019-05-22T01:36:47.374Z,25.33
2019-05-22T01:39:44.673Z,25.00
2019-05-22T01:42:17.548Z,25.53
2019-05-22T01:45:01.427Z,24.30
2019-05-22T01:47:32.953Z,26.07
2019-05-22T01:50:03.132Z,24.93
2019-05-22T01:52:32.809Z,27.23
2019-05-22T01:55:02.623Z,24.03
2019-05-22T01:57:32.641Z,27.40
2019-05-22T02:00:03.753Z,26.83
2019-05-22T02:02:33.261Z,25.13
2019-05-22T02:05:04.509Z,25.40
2019-05-22T02:07:35.326Z,25.20
2019-05-22T02:10:07.515Z,24.37
2019-05-22T02:12:52.223Z,23.33
2019-05-22T02:15:21.903Z,24.90
2019-05-22T02:17:53.178Z,25.00
2019-05-22T02:20:22.470Z,25.17
2019-05-22T02:22:51.951Z,28.87
2019-05-22T02:25:21.214Z,27.73
2019-05-22T02:27:50.449Z,27.70
2019-05-22T02:30:23.102Z,26.30
2019-05-22T02:32:52.874Z,24.90
2019-05-22T02:35:22.480Z,24.87
2019-05-22T02:37:55.963Z,23.73
2019-05-22T02:40:32.505Z,25.60
2019-05-22T02:43:02.107Z,26.40
2019-05-22T02:45:31.774Z,25.83
2019-05-22T02:48:02.225Z,24.27
2019-05-22T02:50:33.387Z,24.57
2019-05-22T02:53:05.623Z,25.40
2019-05-22T02:55:34.711Z,25.90
2019-05-22T02:58:04.951Z,24.63
2019-05-22T03:01:00.329Z,25.93
2019-05-22T03:03:30.665Z,25.97
2019-05-22T03:05:59.898Z,25.03
2019-05-22T03:08:35.690Z,27.33
2019-05-22T03:11:07.303Z,25.43
2019-05-22T03:14:02.774Z,24.50
2019-05-22T03:16:47.070Z,24.57
2019-05-22T03:19:20.464Z,25.37
2019-05-22T03:21:49.587Z,22.80
2019-05-22T03:24:18.877Z,24.50
2019-05-22T03:26:52.711Z,25.50
2019-05-22T03:29:27.907Z,24.80
2019-05-22T03:31:57.054Z,24.23
2019-05-22T03:34:27.350Z,25.40
2019-05-22T03:37:00.295Z,25.60
2019-05-22T03:39:29.590Z,24.50
2019-05-22T03:41:59.370Z,26.17
2019-05-22T03:44:29.866Z,25.37
2019-05-22T03:47:00.311Z,23.57
2019-05-22T03:49:31.319Z,24.37
2019-05-22T03:52:01.215Z,25.10
2019-05-22T03:54:32.015Z,26.27
2019-05-22T03:57:01.321Z,24.87
2019-05-22T03:59:30.870Z,25.03
2019-05-22T04:02:00.166Z,23.80
2019-05-22T04:04:40.924Z,24.67
2019-05-22T04:07:16.324Z,23.80
2019-05-22T04:09:46.338Z,22.93
2019-05-22T04:12:16.056Z,22.37
2019-05-22T04:14:46.673Z,22.47
2019-05-22T04:17:17.018Z,21.13
2019-05-22T04:19:50.316Z,21.50
2019-05-22T04:22:17.431Z,23.00
2019-05-22T04:24:49.919Z,20.53
2019-05-22T04:27:20.065Z,21.43
2019-05-22T04:29:51.130Z,19.97
2019-05-22T04:32:27.374Z,19.13
2019-05-22T04:34:58.620Z,21.80
2019-05-22T04:37:29.399Z,21.37
2019-05-22T04:40:45.334Z,19.47
2019-05-22T04:43:20.118Z,21.50
2019-05-22T04:45:47.288Z,21.80
2019-05-22T04:48:17.927Z,22.40
2019-05-22T04:50:47.420Z,21.67
2019-05-22T04:53:16.743Z,22.20
2019-05-22T04:55:46.077Z,21.33
2019-05-22T04:58:17.495Z,23.73
2019-05-22T05:00:47.269Z,22.60
2019-05-22T05:03:19.105Z,24.40
2019-05-22T05:05:49.869Z,23.50
2019-05-22T05:08:19.325Z,23.37
2019-05-22T05:10:52.872Z,23.33
2019-05-22T05:13:21.918Z,22.73
2019-05-22T05:15:50.865Z,23.37
2019-05-22T05:18:19.904Z,22.50
2019-05-22T05:20:48.990Z,23.10
2019-05-22T05:23:17.935Z,24.20
2019-05-22T05:25:47.054Z,23.53
2019-05-22T05:28:16.219Z,23.10
2019-05-22T05:30:45.198Z,21.93
2019-05-22T05:33:14.794Z,20.27
2019-05-22T05:35:44.447Z,19.97
2019-05-22T05:38:13.982Z,20.47
2019-05-22T05:40:43.618Z,17.67
2019-05-22T05:43:17.826Z,17.33
2019-05-22T05:45:48.511Z,16.17
2019-05-22T05:48:22.759Z,15.70
2019-05-22T05:51:25.509Z,16.83
2019-05-22T05:54:05.597Z,14.20
2019-05-22T05:56:37.156Z,15.27
2019-05-22T05:59:13.888Z,16.80
2019-05-22T06:01:47.068Z,15.37
2019-05-22T06:04:34.699Z,15.73
2019-05-22T06:07:18.205Z,15.37
2019-05-22T06:10:14.294Z,16.30
2019-05-22T06:12:45.066Z,16.00
2019-05-22T06:15:15.018Z,15.07
2019-05-22T06:18:21.082Z,16.37
2019-05-22T06:21:03.344Z,13.90
2019-05-22T06:24:03.367Z,14.87
2019-05-22T06:26:53.458Z,14.70
2019-05-22T06:29:28.150Z,14.00
2019-05-22T06:32:55.274Z,13.50
2019-05-22T06:35:26.670Z,13.63
2019-05-22T06:38:13.810Z,14.77
2019-05-22T06:40:44.135Z,14.63
2019-05-22T06:44:01.276Z,14.30
2019-05-22T06:46:47.665Z,12.57
2019-05-22T06:49:39.793Z,13.90
2019-05-22T06:52:09.275Z,13.43
2019-05-22T06:54:39.285Z,14.50
2019-05-22T06:57:18.080Z,15.87
2019-05-22T06:59:49.093Z,12.00
2019-05-22T07:02:18.949Z,13.53
2019-05-22T07:04:48.261Z,14.33
2019-05-22T07:07:18.370Z,13.70
2019-05-22T07:09:48.293Z,13.17
2019-05-22T07:12:19.804Z,14.90
2019-05-22T07:15:48.648Z,14.40
2019-05-22T07:18:22.585Z,14.30
2019-05-22T07:20:51.985Z,12.87
2019-05-22T07:23:25.725Z,12.53
2019-05-22T07:25:55.756Z,12.83
2019-05-22T07:28:26.405Z,15.00
2019-05-22T07:30:58.809Z,13.90
2019-05-22T07:33:27.995Z,13.20
2019-05-22T07:36:09.147Z,13.63
2019-05-22T07:38:28.745Z,13.90
2019-05-22T07:40:58.183Z,12.73
2019-05-22T07:43:27.269Z,12.43
2019-05-22T07:45:57.757Z,13.13
2019-05-22T07:48:28.913Z,12.97
2019-05-22T07:50:58.058Z,13.47
2019-05-22T07:53:28.634Z,12.73
2019-05-22T07:55:59.454Z,12.43
2019-05-22T07:58:31.035Z,13.93
2019-05-22T08:01:03.302Z,13.43
2019-05-22T08:03:32.919Z,13.77
2019-05-22T08:06:02.923Z,13.53
2019-05-22T08:08:32.980Z,13.20
2019-05-22T08:11:02.917Z,14.67
2019-05-22T08:13:32.139Z,13.73
2019-05-22T08:16:01.497Z,12.80
2019-05-22T08:18:33.713Z,13.07
2019-05-22T08:21:03.379Z,14.07
2019-05-22T08:23:33.466Z,14.60
2019-05-22T08:26:02.577Z,13.43
2019-05-22T08:28:33.077Z,13.03
2019-05-22T08:31:04.146Z,13.33
2019-05-22T08:33:41.770Z,14.03
2019-05-22T08:36:11.770Z,13.73
2019-05-22T08:38:43.678Z,13.73
2019-05-22T08:41:15.125Z,12.73
2019-05-22T08:44:11.373Z,12.10
2019-05-22T08:46:16.695Z,11.63
2019-05-22T08:48:48.698Z,12.53
2019-05-22T08:51:17.042Z,11.37
2019-05-22T08:53:48.576Z,12.67
2019-05-22T08:56:18.280Z,12.13
2019-05-22T08:58:48.674Z,15.17
2019-05-22T09:01:17.972Z,14.00
2019-05-22T09:03:47.510Z,13.57
2019-05-22T09:06:16.709Z,13.20
2019-05-22T09:08:46.631Z,13.60
2019-05-22T09:11:15.833Z,13.23
2019-05-22T09:13:45.035Z,13.67
2019-05-22T09:16:14.362Z,12.30
2019-05-22T09:18:43.650Z,13.20
2019-05-22T09:21:14.123Z,11.60
2019-05-22T09:23:44.446Z,12.83
2019-05-22T09:26:14.358Z,12.27
2019-05-22T09:28:43.465Z,11.63
2019-05-22T09:31:13.308Z,12.03
2019-05-22T09:33:42.482Z,11.70
2019-05-22T09:36:11.466Z,11.60
2019-05-22T09:38:40.759Z,12.60
2019-05-22T09:41:10.465Z,10.90
2019-05-22T09:43:39.626Z,10.67
2019-05-22T09:46:09.208Z,10.80
2019-05-22T09:48:38.757Z,10.13
2019-05-22T09:51:07.877Z,9.67
2019-05-22T09:53:38.273Z,9.57
2019-05-22T09:56:07.619Z,9.37
2019-05-22T09:58:36.922Z,9.43
2019-05-22T10:01:10.952Z,8.90
2019-05-22T10:03:37.963Z,9.37
2019-05-22T10:06:07.507Z,9.10
2019-05-22T10:08:37.366Z,9.30
2019-05-22T10:11:06.616Z,8.20
2019-05-22T10:13:36.149Z,9.70
2019-05-22T10:16:05.324Z,8.50
2019-05-22T10:18:35.190Z,7.93
2019-05-22T10:21:04.459Z,8.07
2019-05-22T10:23:33.809Z,8.33
2019-05-22T10:26:03.307Z,8.83
2019-05-22T10:28:33.099Z,8.10
2019-05-22T10:31:02.940Z,9.70
2019-05-22T10:33:32.054Z,8.63
2019-05-22T10:36:01.143Z,7.33
2019-05-22T10:38:30.063Z,8.60
2019-05-22T10:40:59.672Z,7.93
2019-05-22T10:43:29.406Z,5.73
2019-05-22T10:45:58.594Z,7.27
2019-05-22T10:48:27.920Z,6.43
2019-05-22T10:50:56.976Z,6.80
2019-05-22T10:53:33.737Z,6.70
2019-05-22T10:55:59.025Z,7.50
2019-05-22T10:58:28.497Z,7.60
2019-05-22T11:00:57.793Z,7.53
2019-05-22T11:03:27.118Z,8.10
2019-05-22T11:06:06.313Z,6.83
2019-05-22T11:08:31.937Z,6.50
2019-05-22T11:10:58.553Z,8.27
2019-05-22T11:13:27.643Z,7.20
2019-05-22T11:15:58.747Z,7.77
2019-05-22T11:18:28.896Z,5.97
2019-05-22T11:20:58.000Z,5.07
2019-05-22T11:23:27.887Z,4.57
2019-05-22T11:25:56.996Z,4.20
2019-05-22T11:28:26.859Z,4.73
2019-05-22T11:30:57.486Z,4.83
2019-05-22T11:33:26.701Z,5.37
2019-05-22T11:35:55.874Z,4.93
2019-05-22T11:38:27.970Z,4.90
2019-05-22T11:40:56.994Z,5.50
2019-05-22T11:43:27.017Z,4.90
2019-05-22T11:45:56.246Z,4.50
2019-05-22T11:48:25.459Z,4.87
2019-05-22T11:50:55.051Z,4.70
2019-05-22T11:53:24.261Z,6.00
2019-05-22T11:55:53.682Z,5.10
2019-05-22T11:58:22.840Z,5.37
2019-05-22T12:00:52.241Z,5.80
2019-05-22T12:03:22.857Z,5.10
2019-05-22T12:05:53.307Z,5.10
2019-05-22T12:08:22.706Z,4.20
2019-05-22T12:10:52.411Z,5.20
2019-05-22T12:13:22.225Z,5.97
2019-05-22T12:15:52.353Z,5.40
2019-05-22T12:18:28.674Z,4.60
2019-05-22T12:20:59.054Z,4.90
2019-05-22T12:23:29.439Z,4.93
2019-05-22T12:25:58.709Z,4.80
2019-05-22T12:28:28.156Z,4.97
2019-05-22T12:30:57.587Z,5.43
2019-05-22T12:33:27.307Z,4.67
2019-05-22T12:35:56.706Z,6.70
2019-05-22T12:38:27.544Z,5.10
2019-05-22T12:40:56.831Z,4.57
2019-05-22T12:43:30.190Z,5.13
2019-05-22T12:45:59.403Z,4.60
2019-05-22T12:48:29.141Z,4.50
2019-05-22T12:50:59.566Z,5.10
2019-05-22T12:53:30.078Z,4.30
2019-05-22T12:55:59.791Z,4.73
2019-05-22T12:58:29.826Z,4.70
2019-05-22T13:00:59.590Z,4.93
2019-05-22T13:03:30.006Z,4.97
2019-05-22T13:06:00.031Z,5.13
2019-05-22T13:08:30.774Z,4.60
2019-05-22T13:10:59.936Z,4.30
2019-05-22T13:13:29.456Z,3.60
2019-05-22T13:16:00.307Z,4.90
2019-05-22T13:18:31.659Z,5.80
2019-05-22T13:21:03.506Z,3.83
2019-05-22T13:23:38.057Z,4.40
2019-05-22T13:26:08.638Z,4.30
2019-05-22T13:28:39.798Z,3.73
2019-05-22T13:31:09.986Z,4.40
2019-05-22T13:33:41.980Z,4.83
2019-05-22T13:36:12.884Z,4.50
2019-05-22T13:38:42.699Z,4.40
2019-05-22T13:41:12.409Z,4.53
2019-05-22T13:43:41.708Z,3.97
2019-05-22T13:46:11.552Z,4.97
2019-05-22T13:48:40.681Z,5.10
2019-05-22T13:51:11.717Z,4.40
2019-05-22T13:53:42.221Z,4.37
2019-05-22T13:56:11.969Z,4.47
2019-05-22T13:58:41.536Z,4.90
2019-05-22T14:01:10.785Z,4.83
2019-05-22T14:03:41.175Z,5.00
2019-05-22T14:06:10.553Z,5.20
2019-05-22T14:08:39.980Z,4.60
2019-05-22T14:11:09.550Z,4.63
2019-05-22T14:13:39.460Z,4.33
2019-05-22T14:16:09.599Z,3.80
2019-05-22T14:18:39.271Z,4.20
2019-05-22T14:21:08.726Z,3.43
2019-05-22T14:23:40.923Z,3.80
2019-05-22T14:26:10.061Z,3.33
2019-05-22T14:28:39.951Z,3.63
2019-05-22T14:31:09.530Z,4.00
2019-05-22T14:33:40.642Z,3.63
2019-05-22T14:36:09.697Z,4.00
2019-05-22T14:38:40.098Z,4.63
2019-05-22T14:41:10.040Z,4.10
2019-05-22T14:43:39.148Z,4.50
2019-05-22T14:46:08.528Z,3.67
2019-05-22T14:48:38.930Z,4.67
2019-05-22T14:51:09.125Z,3.53
2019-05-22T14:53:40.042Z,3.60
2019-05-22T14:56:10.992Z,3.50
2019-05-22T14:58:48.039Z,3.10
2019-05-22T15:01:17.378Z,2.80
2019-05-22T15:03:46.582Z,2.93
2019-05-22T15:06:16.588Z,3.73
2019-05-22T15:08:45.781Z,2.50
2019-05-22T15:11:16.778Z,3.40
2019-05-22T15:13:46.902Z,3.57
2019-05-22T15:16:16.336Z,3.37
2019-05-22T15:18:46.486Z,3.50
2019-05-22T15:21:17.223Z,3.27
2019-05-22T15:23:47.641Z,3.07
2019-05-22T15:26:17.019Z,3.73
2019-05-22T15:28:46.556Z,2.90
2019-05-22T15:31:16.250Z,3.07
2019-05-22T15:33:45.633Z,2.67
2019-05-22T15:36:16.902Z,2.40
2019-05-22T15:38:47.203Z,3.07
2019-05-22T15:41:16.730Z,2.77
2019-05-22T15:43:52.147Z,2.37
2019-05-22T15:46:18.590Z,2.13
2019-05-22T15:48:49.933Z,2.33
2019-05-22T15:51:22.730Z,2.17
2019-05-22T15:53:55.138Z,2.30
2019-05-22T15:56:24.133Z,2.50
2019-05-22T15:58:55.782Z,1.80
2019-05-22T16:01:26.383Z,1.97
2019-05-22T16:03:56.728Z,2.17
2019-05-22T16:06:27.764Z,1.73
2019-05-22T16:08:57.231Z,1.60
2019-05-22T16:11:29.839Z,1.80
2019-05-22T16:14:00.962Z,1.97
2019-05-22T16:16:30.142Z,1.83
2019-05-22T16:19:02.911Z,2.10
2019-05-22T16:21:34.891Z,1.77
2019-05-22T16:24:06.279Z,2.27
2019-05-22T16:26:35.850Z,1.97
2019-05-22T16:29:05.817Z,1.93
2019-05-22T16:31:36.956Z,1.83
2019-05-22T16:34:06.153Z,2.57
2019-05-22T16:36:35.827Z,2.40
2019-05-22T16:39:08.157Z,2.70
2019-05-22T16:41:37.758Z,1.80
2019-05-22T16:44:07.800Z,2.43
2019-05-22T16:46:37.756Z,2.80
2019-05-22T16:49:07.487Z,2.27
2019-05-22T16:51:36.675Z,2.70
2019-05-22T16:54:08.328Z,1.87
2019-05-22T16:56:39.403Z,2.37
2019-05-22T16:59:11.107Z,2.27
2019-05-22T17:01:57.569Z,2.97
2019-05-22T17:04:11.782Z,2.13
2019-05-22T17:06:43.031Z,2.47
2019-05-22T17:09:13.363Z,2.80
2019-05-22T17:11:42.511Z,2.77
2019-05-22T17:14:14.712Z,2.00
2019-05-22T17:16:44.512Z,2.37
2019-05-22T17:19:26.644Z,2.13
2019-05-22T17:21:45.853Z,2.40
2019-05-22T17:24:14.958Z,2.40
2019-05-22T17:26:44.709Z,3.00
2019-05-22T17:29:15.136Z,2.50
2019-05-22T17:31:44.235Z,2.47
2019-05-22T17:34:32.483Z,2.80
2019-05-22T17:37:06.873Z,2.37
2019-05-22T17:39:38.168Z,2.03
2019-05-22T17:42:11.202Z,3.13
2019-05-22T17:44:42.281Z,2.40
2019-05-22T17:47:12.459Z,2.03
2019-05-22T17:49:42.420Z,2.50
2019-05-22T17:52:13.389Z,2.60
2019-05-22T17:54:42.632Z,2.53
2019-05-22T17:57:19.412Z,2.20
2019-05-22T17:59:48.795Z,2.60
2019-05-22T18:02:20.342Z,2.43
2019-05-22T18:04:50.833Z,2.20
2019-05-22T18:07:20.668Z,2.30
2019-05-22T18:09:50.643Z,2.10
2019-05-22T18:12:23.829Z,2.70
2019-05-22T18:15:00.347Z,2.80
2019-05-22T18:17:29.970Z,3.10
2019-05-22T18:19:59.593Z,2.83
2019-05-22T18:22:30.011Z,2.43
2019-05-22T18:25:00.733Z,2.60
2019-05-22T18:27:30.634Z,2.40
2019-05-22T18:30:00.221Z,2.67
2019-05-22T18:32:31.633Z,3.70
2019-05-22T18:35:00.382Z,2.80
2019-05-22T18:37:29.387Z,3.37
2019-05-22T18:39:58.481Z,3.13
2019-05-22T18:42:28.054Z,3.10
2019-05-22T18:44:57.322Z,3.20
2019-05-22T18:47:26.859Z,3.23
2019-05-22T18:50:00.186Z,2.70
2019-05-22T18:52:40.452Z,2.73
2019-05-22T18:55:01.479Z,2.87
2019-05-22T18:57:31.033Z,2.60
2019-05-22T19:00:04.658Z,2.73
2019-05-22T19:02:31.820Z,3.20
2019-05-22T19:05:01.093Z,3.00
2019-05-22T19:07:30.366Z,3.23
2019-05-22T19:09:59.839Z,3.23
2019-05-22T19:12:29.763Z,2.87
2019-05-22T19:14:58.872Z,3.47
2019-05-22T19:17:27.894Z,3.90
2019-05-22T19:19:57.025Z,3.67
2019-05-22T19:22:27.749Z,3.10
2019-05-22T19:24:56.823Z,3.50
2019-05-22T19:27:25.837Z,3.73
2019-05-22T19:29:55.372Z,3.50
2019-05-22T19:32:24.768Z,3.50
2019-05-22T19:34:53.794Z,3.17
2019-05-22T19:37:22.834Z,3.10
2019-05-22T19:39:53.526Z,3.37
2019-05-22T19:42:24.547Z,3.87
2019-05-22T19:44:53.750Z,4.07
2019-05-22T19:47:24.311Z,3.63
2019-05-22T19:49:53.435Z,3.77
2019-05-22T19:52:40.491Z,4.13
2019-05-22T19:54:54.043Z,3.80
2019-05-22T19:57:23.509Z,4.50
2019-05-22T19:59:52.824Z,3.67
2019-05-22T20:02:23.225Z,3.73
2019-05-22T20:04:52.823Z,5.17
2019-05-22T20:07:21.875Z,4.10
2019-05-22T20:09:51.795Z,4.50
2019-05-22T20:12:24.768Z,4.10
2019-05-22T20:14:52.277Z,4.50
2019-05-22T20:17:21.721Z,4.60
2019-05-22T20:19:51.076Z,5.60
2019-05-22T20:22:20.945Z,5.33
2019-05-22T20:24:50.132Z,5.30
2019-05-22T20:27:19.617Z,4.77
2019-05-22T20:29:49.073Z,5.00
2019-05-22T20:32:18.873Z,4.60
2019-05-22T20:34:49.374Z,5.93
2019-05-22T20:37:18.983Z,4.70
2019-05-22T20:39:48.132Z,4.97
2019-05-22T20:42:17.373Z,4.87
2019-05-22T20:44:46.996Z,6.23
2019-05-22T20:47:19.750Z,5.90
2019-05-22T20:49:49.384Z,5.70
2019-05-22T20:52:19.889Z,5.03
2019-05-22T20:54:49.497Z,5.93
2019-05-22T20:57:20.518Z,6.27
2019-05-22T20:59:50.105Z,6.17
2019-05-22T21:02:20.736Z,6.23
2019-05-22T21:04:51.355Z,6.10
2019-05-22T21:07:26.770Z,6.07
2019-05-22T21:09:56.190Z,6.00
2019-05-22T21:12:27.287Z,6.50
2019-05-22T21:14:56.305Z,5.57
2019-05-22T21:17:26.193Z,5.67
2019-05-22T21:19:55.971Z,7.63
2019-05-22T21:22:27.173Z,5.77
2019-05-22T21:24:56.502Z,6.70
2019-05-22T21:27:25.693Z,6.03
2019-05-22T21:29:55.543Z,5.80
2019-05-22T21:32:24.782Z,6.43
2019-05-22T21:34:55.282Z,6.20
2019-05-22T21:37:25.760Z,5.87
2019-05-22T21:39:55.564Z,6.77
2019-05-22T21:42:24.807Z,6.27
2019-05-22T21:44:53.745Z,7.07
2019-05-22T21:47:23.450Z,6.10
2019-05-22T21:49:52.855Z,7.17
2019-05-22T21:52:22.457Z,5.53
2019-05-22T21:54:52.469Z,7.20
2019-05-22T21:57:21.839Z,6.70
2019-05-22T21:59:51.095Z,7.47
2019-05-22T22:02:29.350Z,7.03
2019-05-22T22:04:58.690Z,7.40
2019-05-22T22:07:29.033Z,7.60
2019-05-22T22:09:59.724Z,6.87
2019-05-22T22:12:29.104Z,7.60
2019-05-22T22:14:58.493Z,7.63
2019-05-22T22:17:29.079Z,7.27
2019-05-22T22:19:59.809Z,7.70
2019-05-22T22:22:29.436Z,7.30
2019-05-22T22:24:58.958Z,7.93
2019-05-22T22:27:28.740Z,7.53
2019-05-22T22:29:57.783Z,7.10
2019-05-22T22:32:28.509Z,7.67
2019-05-22T22:34:57.903Z,7.90
2019-05-22T22:37:28.964Z,8.60
2019-05-22T22:39:59.602Z,7.80
2019-05-22T22:42:31.352Z,8.77
2019-05-22T22:45:00.982Z,7.60
2019-05-22T22:47:41.910Z,9.83
2019-05-22T22:50:12.417Z,8.73
2019-05-22T22:52:43.446Z,8.00
2019-05-22T22:55:16.432Z,9.67
2019-05-22T22:57:47.285Z,9.23
2019-05-22T23:00:20.700Z,9.27
2019-05-22T23:02:51.382Z,8.40
2019-05-22T23:05:20.481Z,8.77
2019-05-22T23:07:50.321Z,8.70
2019-05-22T23:10:21.583Z,8.60
2019-05-22T23:12:54.045Z,9.57
2019-05-22T23:15:25.942Z,9.30
2019-05-22T23:17:55.434Z,9.40
2019-05-22T23:20:22.936Z,8.10
2019-05-22T23:22:50.511Z,9.00
2019-05-22T23:25:21.161Z,7.97
2019-05-22T23:27:50.643Z,8.33
2019-05-22T23:30:20.600Z,9.47
2019-05-22T23:32:51.097Z,10.27
2019-05-22T23:35:22.662Z,10.00
2019-05-22T23:37:52.276Z,9.83
2019-05-22T23:40:26.547Z,10.03
2019-05-22T23:42:56.669Z,8.77
2019-05-22T23:45:26.185Z,8.83
2019-05-22T23:48:07.014Z,9.43
2019-05-22T23:50:38.011Z,9.50
2019-05-22T23:53:08.565Z,9.27
2019-05-22T23:55:37.638Z,9.60
2019-05-22T23:58:08.794Z,9.60
